createdAt,value
2022-09-16T00:01:51.117Z,13.90
2022-09-16T00:04:18.386Z,13.90
2022-09-16T00:06:45.557Z,13.90
2022-09-16T00:09:12.687Z,13.90
2022-09-16T00:11:39.814Z,13.90
2022-09-16T00:14:06.940Z,13.90
2022-09-16T00:16:34.199Z,13.90
2022-09-16T00:19:01.836Z,13.90
2022-09-16T00:21:29.045Z,13.90
2022-09-16T00:23:56.436Z,13.90
2022-09-16T00:26:23.712Z,13.90
2022-09-16T00:28:50.922Z,13.80
2022-09-16T00:31:18.366Z,13.80
2022-09-16T00:33:45.529Z,13.80
2022-09-16T00:36:16.647Z,13.80
2022-09-16T00:38:44.031Z,13.90
2022-09-16T00:41:18.637Z,13.80
2022-09-16T00:43:54.290Z,13.90
2022-09-16T00:46:26.353Z,13.90
2022-09-16T00:48:53.603Z,13.90
2022-09-16T00:51:21.066Z,13.80
2022-09-16T00:53:52.102Z,13.80
2022-09-16T00:56:19.706Z,13.80
2022-09-16T00:58:48.976Z,13.80
2022-09-16T01:01:16.230Z,13.70
2022-09-16T01:03:55.598Z,13.70
2022-09-16T01:06:23.294Z,13.70
2022-09-16T01:08:50.624Z,13.70
2022-09-16T01:11:17.763Z,13.60
2022-09-16T01:13:44.942Z,13.60
2022-09-16T01:16:18.558Z,13.60
2022-09-16T01:18:59.681Z,13.60
2022-09-16T01:21:31.264Z,13.60
2022-09-16T01:24:25.084Z,13.60
2022-09-16T01:27:13.187Z,13.60
2022-09-16T01:29:49.258Z,13.60
2022-09-16T01:32:22.956Z,13.60
2022-09-16T01:34:50.128Z,13.60
2022-09-16T01:37:29.544Z,13.60
2022-09-16T01:40:12.233Z,13.60
2022-09-16T01:42:57.719Z,13.50
2022-09-16T01:45:40.857Z,13.50
2022-09-16T01:48:28.172Z,13.50
2022-09-16T01:51:07.864Z,13.50
2022-09-16T01:53:36.906Z,13.50
2022-09-16T01:56:10.897Z,13.50
2022-09-16T01:58:57.739Z,13.50
2022-09-16T02:01:36.702Z,13.50
2022-09-16T02:04:11.020Z,13.50
2022-09-16T02:06:38.065Z,13.50
2022-09-16T02:09:16.801Z,13.50
2022-09-16T02:11:43.957Z,13.50
2022-09-16T02:14:18.295Z,13.50
2022-09-16T02:16:45.340Z,13.50
2022-09-16T02:19:15.595Z,13.50
2022-09-16T02:21:45.884Z,13.50
2022-09-16T02:24:18.086Z,13.50
2022-09-16T02:26:52.381Z,13.50
2022-09-16T02:29:21.129Z,13.50
2022-09-16T02:31:48.889Z,13.50
2022-09-16T02:34:20.205Z,13.50
2022-09-16T02:36:49.568Z,13.50
2022-09-16T02:39:19.746Z,13.50
2022-09-16T02:41:47.262Z,13.50
2022-09-16T02:44:14.481Z,13.50
2022-09-16T02:47:01.370Z,13.50
2022-09-16T02:49:33.634Z,13.50
2022-09-16T02:52:19.009Z,13.50
2022-09-16T02:55:12.285Z,13.50
2022-09-16T02:57:39.397Z,13.50
2022-09-16T03:00:07.086Z,13.50
2022-09-16T03:02:34.715Z,13.50
2022-09-16T03:05:02.116Z,13.50
2022-09-16T03:07:29.245Z,13.50
2022-09-16T03:09:56.364Z,13.50
2022-09-16T03:12:33.271Z,13.50
2022-09-16T03:15:30.974Z,13.50
2022-09-16T03:18:15.205Z,13.50
2022-09-16T03:21:00.419Z,13.50
2022-09-16T03:23:44.157Z,13.50
2022-09-16T03:26:35.598Z,13.60
2022-09-16T03:29:08.580Z,13.50
2022-09-16T03:31:57.555Z,13.50
2022-09-16T03:34:33.791Z,13.60
2022-09-16T03:37:06.219Z,13.50
2022-09-16T03:39:33.569Z,13.50
2022-09-16T03:42:04.976Z,13.50
2022-09-16T03:44:36.540Z,13.50
2022-09-16T03:47:04.119Z,13.50
2022-09-16T03:49:31.309Z,13.50
2022-09-16T03:51:58.597Z,13.50
2022-09-16T03:54:25.722Z,13.50
2022-09-16T03:56:52.933Z,13.50
2022-09-16T03:59:20.035Z,13.50
2022-09-16T04:01:47.770Z,13.50
2022-09-16T04:04:15.259Z,13.50
2022-09-16T04:06:42.413Z,13.50
2022-09-16T04:09:12.947Z,13.50
2022-09-16T04:11:40.225Z,13.50
2022-09-16T04:14:07.750Z,13.50
2022-09-16T04:16:34.938Z,13.50
2022-09-16T04:19:02.077Z,13.50
2022-09-16T04:21:29.387Z,13.50
2022-09-16T04:23:56.523Z,13.50
2022-09-16T04:26:23.724Z,13.50
2022-09-16T04:28:54.330Z,13.50
2022-09-16T04:31:21.578Z,13.50
2022-09-16T04:33:48.839Z,13.50
2022-09-16T04:36:17.549Z,13.50
2022-09-16T04:38:45.423Z,13.50
2022-09-16T04:41:17.722Z,13.50
2022-09-16T04:43:45.041Z,13.40
2022-09-16T04:46:12.194Z,13.50
2022-09-16T04:48:39.387Z,13.40
2022-09-16T04:51:11.121Z,13.40
2022-09-16T04:53:39.107Z,13.40
2022-09-16T04:56:07.582Z,13.50
2022-09-16T04:58:35.179Z,13.40
2022-09-16T05:01:06.858Z,13.40
2022-09-16T05:03:34.161Z,13.40
2022-09-16T05:06:06.180Z,13.40
2022-09-16T05:08:35.144Z,13.40
2022-09-16T05:11:09.667Z,13.40
2022-09-16T05:13:36.879Z,13.40
2022-09-16T05:16:05.440Z,13.40
2022-09-16T05:18:32.942Z,13.40
2022-09-16T05:21:04.747Z,13.40
2022-09-16T05:23:32.363Z,13.40
2022-09-16T05:26:10.439Z,13.40
2022-09-16T05:28:37.538Z,13.40
2022-09-16T05:31:09.594Z,13.50
2022-09-16T05:33:36.866Z,13.40
2022-09-16T05:36:08.660Z,13.40
2022-09-16T05:38:35.946Z,13.40
2022-09-16T05:41:03.639Z,13.40
2022-09-16T05:43:31.165Z,13.40
2022-09-16T05:45:58.311Z,13.40
2022-09-16T05:48:25.727Z,13.40
2022-09-16T05:51:01.146Z,13.40
2022-09-16T05:53:29.108Z,13.40
2022-09-16T05:56:13.308Z,13.40
2022-09-16T05:58:40.835Z,13.40
2022-09-16T06:01:09.042Z,13.40
2022-09-16T06:03:37.326Z,13.40
2022-09-16T06:06:04.599Z,13.40
2022-09-16T06:08:32.665Z,13.40
2022-09-16T06:11:03.929Z,13.40
2022-09-16T06:13:31.320Z,13.40
2022-09-16T06:15:58.699Z,13.40
2022-09-16T06:18:27.143Z,13.50
2022-09-16T06:20:54.337Z,13.50
2022-09-16T06:23:22.206Z,13.50
2022-09-16T06:25:49.435Z,13.50
2022-09-16T06:28:16.570Z,13.50
2022-09-16T06:30:43.731Z,13.50
2022-09-16T06:33:12.729Z,13.50
2022-09-16T06:35:39.885Z,13.50
2022-09-16T06:38:07.089Z,13.50
2022-09-16T06:40:34.212Z,13.50
2022-09-16T06:43:01.357Z,13.50
2022-09-16T06:45:29.287Z,13.50
2022-09-16T06:48:00.038Z,13.50
2022-09-16T06:50:27.225Z,13.50
2022-09-16T06:52:54.356Z,13.50
2022-09-16T06:55:21.669Z,13.50
2022-09-16T06:57:48.831Z,13.40
2022-09-16T07:00:16.076Z,13.50
2022-09-16T07:02:43.249Z,13.50
2022-09-16T07:05:11.965Z,13.50
2022-09-16T07:07:39.581Z,13.50
2022-09-16T07:10:07.474Z,13.50
2022-09-16T07:12:34.624Z,13.50
2022-09-16T07:15:02.438Z,13.50
2022-09-16T07:17:30.018Z,13.50
2022-09-16T07:19:57.178Z,13.60
2022-09-16T07:22:24.337Z,13.50
2022-09-16T07:24:51.475Z,13.50
2022-09-16T07:27:18.610Z,13.50
2022-09-16T07:29:45.741Z,13.50
2022-09-16T07:32:12.875Z,13.50
2022-09-16T07:34:40.008Z,13.50
2022-09-16T07:37:07.126Z,13.50
2022-09-16T07:39:34.244Z,13.60
2022-09-16T07:42:06.033Z,13.50
2022-09-16T07:44:33.516Z,13.60
2022-09-16T07:47:00.727Z,13.60
2022-09-16T07:49:27.876Z,13.60
2022-09-16T07:51:54.997Z,13.60
2022-09-16T07:54:22.210Z,13.60
2022-09-16T07:56:49.524Z,13.60
2022-09-16T07:59:19.096Z,13.60
2022-09-16T08:01:48.045Z,13.70
2022-09-16T08:04:15.907Z,13.70
2022-09-16T08:06:43.110Z,13.70
2022-09-16T08:09:36.807Z,13.70
2022-09-16T08:11:57.515Z,13.70
2022-09-16T08:14:24.735Z,13.80
2022-09-16T08:16:51.950Z,13.80
2022-09-16T08:19:20.362Z,13.80
2022-09-16T08:21:47.474Z,13.80
2022-09-16T08:24:14.741Z,13.80
2022-09-16T08:26:42.099Z,13.80
2022-09-16T08:29:10.387Z,13.90
2022-09-16T08:31:38.321Z,13.90
2022-09-16T08:34:06.089Z,13.90
2022-09-16T08:36:33.749Z,13.90
2022-09-16T08:39:00.985Z,13.90
2022-09-16T08:41:55.245Z,14.00
2022-09-16T08:44:34.549Z,14.00
2022-09-16T08:47:02.538Z,14.00
2022-09-16T08:49:45.741Z,14.00
2022-09-16T08:52:21.208Z,14.00
2022-09-16T08:54:51.107Z,14.00
2022-09-16T08:57:20.635Z,14.10
2022-09-16T09:00:12.719Z,14.10
2022-09-16T09:02:42.900Z,14.10
2022-09-16T09:05:25.483Z,14.10
2022-09-16T09:08:10.844Z,14.10
2022-09-16T09:10:50.455Z,14.10
2022-09-16T09:13:29.834Z,14.20
2022-09-16T09:16:12.402Z,14.20
2022-09-16T09:18:39.574Z,14.20
2022-09-16T09:21:33.801Z,14.20
2022-09-16T09:24:28.793Z,14.20
2022-09-16T09:26:58.429Z,14.20
2022-09-16T09:29:40.638Z,14.20
2022-09-16T09:32:48.622Z,14.20
2022-09-16T09:35:38.514Z,14.20
2022-09-16T09:38:29.497Z,14.10
2022-09-16T09:41:19.863Z,14.10
2022-09-16T09:43:48.202Z,14.10
2022-09-16T09:46:40.256Z,14.10
2022-09-16T09:49:21.517Z,14.10
2022-09-16T09:51:52.016Z,14.10
2022-09-16T09:54:26.660Z,14.10
2022-09-16T09:56:56.954Z,14.10
2022-09-16T09:59:41.352Z,14.00
2022-09-16T10:02:30.950Z,14.00
2022-09-16T10:04:58.108Z,14.10
2022-09-16T10:07:25.619Z,14.00
2022-09-16T10:09:55.550Z,14.00
2022-09-16T10:12:34.951Z,14.00
2022-09-16T10:15:02.466Z,14.00
2022-09-16T10:17:31.382Z,14.00
2022-09-16T10:20:10.395Z,14.00
2022-09-16T10:23:41.393Z,14.00
2022-09-16T10:26:22.276Z,14.00
2022-09-16T10:29:14.992Z,14.00
2022-09-16T10:31:44.832Z,13.90
2022-09-16T10:34:34.120Z,13.90
2022-09-16T10:37:21.656Z,13.90
2022-09-16T10:39:56.611Z,13.90
2022-09-16T10:42:25.928Z,13.90
2022-09-16T10:45:02.322Z,13.90
2022-09-16T10:47:32.797Z,13.90
2022-09-16T10:50:05.228Z,13.90
2022-09-16T10:52:42.948Z,13.90
2022-09-16T10:55:20.307Z,13.70
2022-09-16T10:57:47.438Z,13.40
2022-09-16T11:00:22.834Z,13.20
2022-09-16T11:03:06.997Z,13.10
2022-09-16T11:05:58.616Z,12.90
2022-09-16T11:08:44.165Z,12.80
2022-09-16T11:11:36.182Z,12.70
2022-09-16T11:14:34.550Z,12.70
2022-09-16T11:20:28.499Z,12.70
2022-09-16T11:23:06.205Z,12.60
2022-09-16T11:26:13.094Z,12.60
2022-09-16T11:29:03.623Z,12.60
2022-09-16T11:31:45.870Z,12.60
2022-09-16T11:34:52.382Z,12.60
2022-09-16T11:37:25.413Z,12.50
2022-09-16T11:40:39.271Z,12.60
2022-09-16T11:43:31.508Z,12.60
2022-09-16T11:46:04.011Z,12.50
2022-09-16T11:48:51.575Z,12.40
2022-09-16T11:51:44.283Z,12.30
2022-09-16T11:54:16.662Z,12.30
2022-09-16T11:56:50.168Z,12.20
2022-09-16T11:59:31.509Z,12.20
2022-09-16T12:02:18.001Z,12.20
2022-09-16T12:05:43.958Z,12.20
2022-09-16T12:08:23.609Z,12.10
2022-09-16T12:11:06.180Z,12.10
2022-09-16T12:14:05.524Z,12.10
2022-09-16T12:16:43.856Z,12.10
2022-09-16T12:19:23.713Z,12.10
2022-09-16T12:21:59.392Z,12.10
2022-09-16T12:24:42.309Z,12.10
2022-09-16T12:27:34.852Z,12.10
2022-09-16T12:30:53.229Z,12.10
2022-09-16T12:33:32.989Z,12.10
2022-09-16T12:36:04.341Z,12.10
2022-09-16T12:38:31.689Z,12.10
2022-09-16T12:41:26.667Z,12.10
2022-09-16T12:44:35.875Z,12.10
2022-09-16T12:47:29.330Z,12.10
2022-09-16T12:50:19.848Z,12.10
2022-09-16T12:53:55.010Z,12.10
2022-09-16T12:56:50.447Z,12.10
2022-09-16T13:00:03.097Z,12.00
2022-09-16T13:02:56.874Z,12.00
2022-09-16T13:05:33.582Z,12.10
2022-09-16T13:08:47.673Z,12.10
2022-09-16T13:12:16.561Z,12.10
2022-09-16T13:14:22.870Z,12.00
2022-09-16T13:16:55.254Z,12.00
2022-09-16T13:19:32.490Z,12.00
2022-09-16T13:22:15.324Z,12.00
2022-09-16T13:24:45.758Z,12.00
2022-09-16T13:27:40.222Z,12.00
2022-09-16T13:30:11.998Z,11.90
2022-09-16T13:32:58.108Z,11.90
2022-09-16T13:35:32.554Z,11.90
2022-09-16T13:38:00.623Z,11.90
2022-09-16T13:40:29.887Z,11.90
2022-09-16T13:43:13.388Z,11.90
2022-09-16T13:45:42.505Z,11.90
2022-09-16T13:48:23.459Z,11.90
2022-09-16T13:50:57.751Z,11.90
2022-09-16T13:54:04.370Z,11.90
2022-09-16T13:56:49.306Z,11.90
2022-09-16T13:59:22.564Z,11.90
2022-09-16T14:02:31.226Z,11.90
2022-09-16T14:05:37.152Z,11.80
2022-09-16T14:08:13.211Z,11.80
2022-09-16T14:11:02.935Z,11.80
2022-09-16T14:13:37.540Z,11.70
2022-09-16T14:16:23.001Z,11.80
2022-09-16T14:19:04.358Z,11.70
2022-09-16T14:21:31.857Z,11.70
2022-09-16T14:24:35.996Z,11.70
2022-09-16T14:27:03.491Z,11.70
2022-09-16T14:29:31.106Z,11.70
2022-09-16T14:31:58.447Z,11.70
2022-09-16T14:34:36.849Z,11.80
2022-09-16T14:37:04.439Z,11.80
2022-09-16T14:39:31.774Z,11.70
2022-09-16T14:42:02.728Z,11.80
2022-09-16T14:44:36.526Z,11.70
2022-09-16T14:47:32.403Z,11.70
2022-09-16T14:50:15.606Z,11.70
2022-09-16T14:53:13.274Z,11.70
2022-09-16T14:55:49.613Z,11.70
2022-09-16T14:58:16.893Z,11.70
2022-09-16T15:00:50.322Z,11.70
2022-09-16T15:03:28.164Z,11.70
2022-09-16T15:05:55.712Z,11.60
2022-09-16T15:08:34.755Z,11.60
2022-09-16T15:11:24.455Z,11.60
2022-09-16T15:14:00.082Z,11.60
2022-09-16T15:16:27.407Z,11.50
2022-09-16T15:19:01.629Z,11.50
2022-09-16T15:21:34.623Z,11.50
2022-09-16T15:24:18.315Z,11.50
2022-09-16T15:26:46.308Z,11.50
2022-09-16T15:29:43.697Z,11.50
2022-09-16T15:32:31.737Z,11.50
2022-09-16T15:35:36.377Z,11.40
2022-09-16T15:38:13.223Z,11.40
2022-09-16T15:40:40.620Z,11.40
2022-09-16T15:43:30.804Z,11.40
2022-09-16T15:46:03.587Z,11.40
2022-09-16T15:48:34.052Z,11.40
2022-09-16T15:51:10.437Z,11.40
2022-09-16T15:53:43.399Z,11.40
2022-09-16T15:56:24.969Z,11.40
2022-09-16T15:58:57.445Z,11.40
2022-09-16T16:01:41.555Z,11.40
2022-09-16T16:04:10.990Z,11.30
2022-09-16T16:07:01.862Z,11.30
2022-09-16T16:09:34.249Z,11.40
2022-09-16T16:12:12.483Z,11.40
2022-09-16T16:14:44.894Z,11.40
2022-09-16T16:17:15.918Z,11.30
2022-09-16T16:19:43.999Z,11.40
2022-09-16T16:22:12.165Z,11.40
2022-09-16T16:24:39.687Z,11.40
2022-09-16T16:27:08.431Z,11.40
2022-09-16T16:29:35.942Z,11.40
2022-09-16T16:32:13.361Z,11.40
2022-09-16T16:34:42.602Z,11.30
2022-09-16T16:37:27.943Z,11.40
2022-09-16T16:40:10.121Z,11.40
2022-09-16T16:42:37.643Z,11.40
2022-09-16T16:45:05.680Z,11.40
2022-09-16T16:47:33.218Z,11.40
2022-09-16T16:50:01.756Z,11.40
2022-09-16T16:52:29.224Z,11.40
2022-09-16T16:54:56.633Z,11.40
2022-09-16T16:57:24.135Z,11.40
2022-09-16T17:00:03.065Z,11.40
2022-09-16T17:02:30.542Z,11.40
2022-09-16T17:05:01.193Z,11.40
2022-09-16T17:07:29.785Z,11.40
2022-09-16T17:09:57.463Z,11.40
2022-09-16T17:12:28.711Z,11.30
2022-09-16T17:15:26.085Z,11.30
2022-09-16T17:17:58.427Z,11.30
2022-09-16T17:20:26.006Z,11.30
2022-09-16T17:22:53.501Z,11.30
2022-09-16T17:25:21.246Z,11.30
2022-09-16T17:27:49.742Z,11.30
2022-09-16T17:30:21.019Z,11.30
2022-09-16T17:32:50.652Z,11.30
2022-09-16T17:35:21.123Z,11.30
2022-09-16T17:37:49.230Z,11.20
2022-09-16T17:40:26.794Z,11.30
2022-09-16T17:43:32.034Z,11.30
2022-09-16T17:46:01.338Z,11.20
2022-09-16T17:48:31.155Z,11.20
2022-09-16T17:51:01.467Z,11.20
2022-09-16T17:53:41.366Z,11.20
2022-09-16T17:56:10.291Z,11.10
2022-09-16T17:58:42.896Z,11.10
2022-09-16T18:01:15.288Z,11.10
2022-09-16T18:03:46.695Z,11.10
2022-09-16T18:06:19.914Z,11.10
2022-09-16T18:08:48.108Z,11.10
2022-09-16T18:11:19.353Z,11.10
2022-09-16T18:13:58.508Z,11.00
2022-09-16T18:16:37.724Z,11.10
2022-09-16T18:19:05.991Z,11.00
2022-09-16T18:21:33.873Z,11.00
2022-09-16T18:24:02.674Z,11.00
2022-09-16T18:26:32.884Z,11.00
2022-09-16T18:29:18.989Z,11.00
2022-09-16T18:31:52.377Z,11.00
2022-09-16T18:34:20.169Z,11.00
2022-09-16T18:36:50.964Z,11.00
2022-09-16T18:39:19.642Z,11.00
2022-09-16T18:41:47.106Z,11.00
2022-09-16T18:44:16.879Z,11.00
2022-09-16T18:46:44.478Z,11.00
2022-09-16T18:50:07.149Z,11.00
2022-09-16T18:52:34.536Z,11.00
2022-09-16T18:55:10.272Z,11.00
2022-09-16T18:57:37.893Z,11.00
2022-09-16T19:00:09.308Z,11.00
2022-09-16T19:02:37.504Z,11.10
2022-09-16T19:05:05.553Z,11.00
2022-09-16T19:07:33.998Z,11.00
2022-09-16T19:10:01.770Z,11.00
2022-09-16T19:12:37.105Z,11.00
2022-09-16T19:15:06.889Z,11.00
2022-09-16T19:17:45.471Z,11.00
2022-09-16T19:20:12.809Z,11.00
2022-09-16T19:22:45.193Z,11.00
2022-09-16T19:25:13.466Z,11.00
2022-09-16T19:27:43.914Z,11.00
2022-09-16T19:30:11.594Z,11.00
2022-09-16T19:32:47.374Z,11.00
2022-09-16T19:35:15.615Z,11.00
2022-09-16T19:37:43.004Z,11.00
2022-09-16T19:40:11.804Z,11.00
2022-09-16T19:42:49.624Z,11.00
2022-09-16T19:45:17.007Z,11.00
2022-09-16T19:48:11.329Z,11.00
2022-09-16T19:50:39.352Z,11.00
2022-09-16T19:53:08.675Z,11.00
2022-09-16T19:55:35.909Z,11.00
2022-09-16T19:58:33.620Z,11.00
2022-09-16T20:01:02.026Z,11.00
2022-09-16T20:04:21.108Z,11.00
2022-09-16T20:06:48.753Z,11.00
2022-09-16T20:09:22.185Z,11.00
2022-09-16T20:11:49.474Z,11.00
2022-09-16T20:14:43.805Z,11.00
2022-09-16T20:17:11.047Z,11.00
2022-09-16T20:19:38.387Z,11.00
2022-09-16T20:22:05.694Z,11.00
2022-09-16T20:24:33.024Z,11.00
2022-09-16T20:27:04.807Z,11.00
2022-09-16T20:29:32.036Z,11.00
2022-09-16T20:31:59.419Z,11.10
2022-09-16T20:34:26.771Z,11.10
2022-09-16T20:37:04.169Z,11.10
2022-09-16T20:39:31.424Z,11.10
2022-09-16T20:42:31.421Z,11.10
2022-09-16T20:44:58.653Z,11.10
2022-09-16T20:47:55.221Z,11.00
2022-09-16T20:50:22.668Z,11.00
2022-09-16T20:52:53.330Z,11.10
2022-09-16T20:55:32.093Z,11.10
2022-09-16T20:57:59.289Z,11.10
2022-09-16T21:00:55.560Z,11.00
2022-09-16T21:03:22.821Z,11.10
2022-09-16T21:06:08.435Z,11.10
2022-09-16T21:08:38.701Z,11.10
2022-09-16T21:11:43.837Z,11.10
2022-09-16T21:14:12.313Z,11.10
2022-09-16T21:16:40.920Z,11.10
2022-09-16T21:19:09.756Z,11.10
2022-09-16T21:21:39.430Z,11.10
2022-09-16T21:24:07.313Z,11.10
2022-09-16T21:27:00.344Z,11.10
2022-09-16T21:29:27.684Z,11.10
2022-09-16T21:32:22.312Z,11.10
2022-09-16T21:34:49.543Z,11.10
2022-09-16T21:41:43.596Z,11.10
2022-09-16T21:48:37.536Z,11.10
2022-09-16T21:51:35.435Z,11.10
2022-09-16T21:54:03.777Z,11.10
2022-09-16T21:56:31.307Z,11.10
2022-09-16T21:58:59.547Z,11.10
2022-09-16T22:01:28.585Z,11.10
2022-09-16T22:04:47.013Z,11.10
2022-09-16T22:08:06.955Z,11.00
2022-09-16T22:10:34.271Z,11.00
2022-09-16T22:13:01.726Z,11.00
2022-09-16T22:15:34.443Z,11.00
2022-09-16T22:18:02.309Z,11.00
2022-09-16T22:20:29.601Z,11.00
2022-09-16T22:22:56.946Z,11.00
2022-09-16T22:25:24.248Z,11.00
2022-09-16T22:28:21.013Z,10.90
2022-09-16T22:30:48.285Z,10.90
2022-09-16T22:33:15.542Z,10.90
2022-09-16T22:40:02.254Z,10.90
2022-09-16T22:42:35.426Z,10.90
2022-09-16T22:45:02.686Z,10.80
2022-09-16T22:47:30.018Z,10.80
2022-09-16T22:50:08.059Z,10.80
2022-09-16T22:52:35.344Z,10.80
2022-09-16T22:55:02.639Z,10.80
2022-09-16T22:57:37.955Z,10.80
2022-09-16T23:00:05.759Z,10.80
2022-09-16T23:02:33.049Z,10.80
2022-09-16T23:05:07.307Z,10.80
2022-09-16T23:07:34.509Z,10.70
2022-09-16T23:10:01.889Z,10.70
2022-09-16T23:12:53.246Z,10.70
2022-09-16T23:15:20.453Z,10.70
2022-09-16T23:17:47.699Z,10.70
2022-09-16T23:20:40.174Z,10.60
2022-09-16T23:23:07.410Z,10.60
2022-09-16T23:25:34.918Z,10.60
2022-09-16T23:28:58.958Z,10.60
2022-09-16T23:31:30.904Z,10.60
2022-09-16T23:33:58.515Z,10.60
2022-09-16T23:36:27.520Z,10.60
2022-09-16T23:38:55.002Z,10.60
2022-09-16T23:41:47.143Z,10.60
2022-09-16T23:44:15.850Z,10.60
2022-09-16T23:46:43.320Z,10.60
2022-09-16T23:49:10.810Z,10.60
2022-09-16T23:51:39.049Z,10.60
2022-09-16T23:54:06.335Z,10.50
2022-09-16T23:56:43.052Z,10.50
